createdAt,value
2017-09-24T00:01:06.847Z,62.10
2017-09-24T00:03:34.359Z,62.10
2017-09-24T00:06:02.634Z,62.10
2017-09-24T00:08:30.914Z,62.00
2017-09-24T00:10:59.174Z,62.00
2017-09-24T00:13:26.695Z,61.90
2017-09-24T00:15:54.209Z,62.00
2017-09-24T00:18:22.504Z,62.10
2017-09-24T00:20:50.017Z,62.10
2017-09-24T00:23:17.541Z,62.10
2017-09-24T00:25:45.051Z,62.00
2017-09-24T00:28:12.574Z,62.10
2017-09-24T00:30:40.077Z,62.10
2017-09-24T00:33:08.357Z,62.10
2017-09-24T00:35:35.898Z,62.10
2017-09-24T00:38:03.417Z,62.20
2017-09-24T00:40:30.918Z,62.20
2017-09-24T00:42:58.448Z,62.30
2017-09-24T00:45:25.949Z,62.40
2017-09-24T00:47:54.258Z,62.50
2017-09-24T00:50:21.765Z,62.50
2017-09-24T00:52:49.275Z,62.50
2017-09-24T00:55:16.790Z,62.50
2017-09-24T00:57:44.294Z,62.50
2017-09-24T01:00:11.812Z,62.50
2017-09-24T01:02:39.309Z,62.50
2017-09-24T01:05:06.874Z,63.10
2017-09-24T01:07:34.382Z,62.50
2017-09-24T01:10:01.904Z,62.50
2017-09-24T01:12:29.402Z,62.50
2017-09-24T01:14:56.929Z,62.50
2017-09-24T01:17:24.421Z,62.40
2017-09-24T01:19:51.958Z,62.30
2017-09-24T01:22:19.454Z,62.10
2017-09-24T01:24:47.728Z,62.00
2017-09-24T01:27:16.146Z,61.90
2017-09-24T01:29:43.651Z,61.70
2017-09-24T01:32:11.178Z,61.60
2017-09-24T01:34:38.674Z,61.70
2017-09-24T01:37:06.194Z,61.70
2017-09-24T01:39:33.693Z,61.70
2017-09-24T01:42:01.194Z,61.60
2017-09-24T01:44:28.715Z,62.20
2017-09-24T01:46:56.214Z,61.60
2017-09-24T01:49:23.726Z,62.40
2017-09-24T01:51:51.231Z,61.70
2017-09-24T01:54:18.761Z,61.70
2017-09-24T01:56:47.026Z,61.80
2017-09-24T01:59:14.527Z,61.80
2017-09-24T02:01:42.042Z,61.80
2017-09-24T02:04:09.538Z,61.70
2017-09-24T02:06:37.054Z,61.70
2017-09-24T02:09:04.558Z,61.70
2017-09-24T02:11:32.101Z,61.70
2017-09-24T02:14:00.369Z,61.90
2017-09-24T02:16:28.654Z,61.80
2017-09-24T02:18:56.935Z,61.90
2017-09-24T02:21:24.439Z,61.90
2017-09-24T02:23:51.962Z,62.00
2017-09-24T02:26:19.469Z,62.00
2017-09-24T02:28:47.014Z,62.10
2017-09-24T02:31:14.573Z,62.20
2017-09-24T02:33:42.850Z,62.40
2017-09-24T02:36:10.511Z,62.30
2017-09-24T02:38:38.039Z,62.40
2017-09-24T02:41:05.554Z,62.30
2017-09-24T02:43:33.060Z,62.40
2017-09-24T02:46:00.590Z,62.40
2017-09-24T02:48:28.860Z,62.60
2017-09-24T02:50:56.354Z,62.50
2017-09-24T02:53:23.869Z,62.60
2017-09-24T02:55:51.371Z,62.70
2017-09-24T02:58:18.885Z,62.80
2017-09-24T03:00:46.385Z,62.80
2017-09-24T03:03:13.907Z,62.80
2017-09-24T03:05:41.425Z,62.80
2017-09-24T03:08:08.926Z,62.80
2017-09-24T03:10:36.458Z,62.70
2017-09-24T03:13:03.968Z,62.70
2017-09-24T03:15:32.260Z,62.60
2017-09-24T03:17:59.757Z,62.60
2017-09-24T03:20:27.277Z,62.60
2017-09-24T03:22:54.791Z,62.60
2017-09-24T03:25:22.299Z,62.60
2017-09-24T03:27:49.816Z,62.60
2017-09-24T03:30:17.327Z,62.60
2017-09-24T03:32:45.637Z,62.60
2017-09-24T03:35:13.197Z,62.60
2017-09-24T03:37:40.730Z,62.70
2017-09-24T03:40:08.274Z,62.70
2017-09-24T03:42:35.786Z,62.60
2017-09-24T03:45:03.310Z,62.60
2017-09-24T03:47:30.835Z,62.60
2017-09-24T03:49:59.113Z,62.60
2017-09-24T03:52:27.384Z,62.50
2017-09-24T03:54:55.666Z,62.40
2017-09-24T03:57:23.170Z,62.40
2017-09-24T03:59:50.685Z,62.40
2017-09-24T04:02:18.257Z,62.10
2017-09-24T04:04:45.769Z,62.20
2017-09-24T04:07:13.491Z,62.10
2017-09-24T04:09:44.850Z,62.10
2017-09-24T04:12:12.358Z,61.90
2017-09-24T04:14:39.867Z,62.00
2017-09-24T04:17:07.378Z,61.80
2017-09-24T04:19:34.882Z,61.90
2017-09-24T04:22:02.389Z,61.90
2017-09-24T04:24:29.910Z,61.90
2017-09-24T04:26:57.441Z,62.00
2017-09-24T04:29:24.950Z,62.00
2017-09-24T04:31:53.221Z,61.90
2017-09-24T04:34:20.754Z,61.90
2017-09-24T04:36:48.250Z,61.70
2017-09-24T04:39:15.782Z,61.60
2017-09-24T04:41:43.286Z,61.70
2017-09-24T04:44:10.826Z,61.80
2017-09-24T04:46:39.102Z,62.10
2017-09-24T04:49:06.605Z,62.00
2017-09-24T04:51:34.113Z,62.10
2017-09-24T04:54:01.621Z,62.20
2017-09-24T04:56:29.134Z,62.20
2017-09-24T04:58:56.758Z,62.20
2017-09-24T05:01:24.269Z,62.30
2017-09-24T05:03:52.753Z,62.20
2017-09-24T05:06:20.274Z,62.20
2017-09-24T05:08:47.775Z,62.20
2017-09-24T05:11:15.297Z,62.20
2017-09-24T05:13:42.806Z,62.10
2017-09-24T05:16:10.343Z,62.10
2017-09-24T05:18:38.617Z,62.10
2017-09-24T05:21:06.134Z,62.10
2017-09-24T05:23:33.750Z,62.00
2017-09-24T05:26:01.292Z,61.90
2017-09-24T05:28:29.561Z,61.80
2017-09-24T05:30:57.839Z,61.80
2017-09-24T05:33:25.468Z,61.70
2017-09-24T05:35:52.957Z,61.80
2017-09-24T05:38:20.471Z,61.80
2017-09-24T05:40:49.176Z,61.90
2017-09-24T05:43:16.697Z,62.00
2017-09-24T05:45:44.229Z,62.00
2017-09-24T05:48:11.729Z,62.00
2017-09-24T05:50:40.026Z,62.30
2017-09-24T05:53:07.538Z,62.20
2017-09-24T05:55:35.047Z,62.30
2017-09-24T05:58:02.605Z,62.60
2017-09-24T06:00:30.106Z,62.60
2017-09-24T06:02:57.621Z,62.70
2017-09-24T06:05:25.118Z,62.80
2017-09-24T06:07:52.621Z,62.80
2017-09-24T06:10:20.130Z,62.80
2017-09-24T06:12:47.626Z,63.00
2017-09-24T06:15:15.150Z,63.00
2017-09-24T06:17:42.653Z,63.10
2017-09-24T06:20:10.170Z,63.70
2017-09-24T06:22:37.681Z,64.40
2017-09-24T06:25:05.189Z,64.50
2017-09-24T06:27:32.726Z,64.80
2017-09-24T06:30:00.233Z,65.70
2017-09-24T06:32:27.726Z,64.90
2017-09-24T06:34:55.239Z,64.90
2017-09-24T06:37:23.513Z,65.00
2017-09-24T06:39:51.793Z,65.10
2017-09-24T06:42:20.054Z,64.90
2017-09-24T06:44:47.558Z,64.90
2017-09-24T06:47:15.083Z,64.90
2017-09-24T06:49:43.346Z,64.60
2017-09-24T06:52:10.906Z,64.50
2017-09-24T06:54:38.409Z,65.30
2017-09-24T06:57:05.957Z,65.00
2017-09-24T06:59:33.486Z,64.20
2017-09-24T07:02:01.795Z,64.80
2017-09-24T07:04:29.319Z,64.00
2017-09-24T07:06:56.822Z,64.10
2017-09-24T07:09:24.375Z,64.30
2017-09-24T07:11:51.912Z,64.00
2017-09-24T07:14:19.439Z,64.20
2017-09-24T07:16:48.467Z,64.20
2017-09-24T07:19:16.731Z,63.90
2017-09-24T07:21:44.258Z,63.90
2017-09-24T07:24:11.794Z,63.90
2017-09-24T07:26:39.311Z,64.00
2017-09-24T07:29:07.598Z,64.50
2017-09-24T07:31:35.916Z,64.60
2017-09-24T07:34:03.430Z,64.50
2017-09-24T07:36:30.960Z,64.40
2017-09-24T07:38:58.490Z,64.30
2017-09-24T07:41:26.016Z,65.00
2017-09-24T07:43:53.529Z,64.10
2017-09-24T07:46:21.058Z,64.00
2017-09-24T07:48:49.345Z,63.70
2017-09-24T07:51:16.846Z,63.70
2017-09-24T07:53:44.385Z,63.80
2017-09-24T07:56:11.886Z,63.70
2017-09-24T07:58:39.402Z,63.20
2017-09-24T08:01:06.932Z,63.00
2017-09-24T08:03:35.206Z,62.70
2017-09-24T08:06:03.486Z,62.60
2017-09-24T08:08:31.758Z,62.40
2017-09-24T08:11:00.058Z,62.10
2017-09-24T08:13:27.566Z,62.00
2017-09-24T08:15:55.087Z,62.10
2017-09-24T08:18:22.617Z,61.80
2017-09-24T08:20:50.929Z,61.50
2017-09-24T08:23:18.475Z,61.40
2017-09-24T08:25:45.978Z,61.20
2017-09-24T08:28:13.479Z,60.30
2017-09-24T08:30:41.017Z,59.80
2017-09-24T08:33:09.281Z,59.00
2017-09-24T08:35:36.823Z,58.90
2017-09-24T08:38:04.376Z,58.70
2017-09-24T08:40:31.882Z,58.20
2017-09-24T08:43:00.150Z,58.30
2017-09-24T08:45:28.425Z,57.90
2017-09-24T08:47:55.951Z,57.90
2017-09-24T08:50:23.461Z,58.00
2017-09-24T08:52:51.755Z,56.90
2017-09-24T08:55:19.266Z,56.80
2017-09-24T08:57:46.782Z,55.40
2017-09-24T09:00:14.298Z,55.50
2017-09-24T09:02:42.569Z,55.70
2017-09-24T09:05:10.074Z,55.60
2017-09-24T09:07:37.592Z,55.00
2017-09-24T09:10:05.864Z,55.00
2017-09-24T09:12:33.374Z,54.90
2017-09-24T09:15:00.918Z,54.50
2017-09-24T09:17:28.426Z,54.30
2017-09-24T09:19:55.939Z,52.00
2017-09-24T09:22:23.466Z,52.80
2017-09-24T09:24:51.741Z,52.50
2017-09-24T09:27:19.243Z,52.50
2017-09-24T09:29:46.774Z,51.90
2017-09-24T09:32:14.291Z,52.10
2017-09-24T09:34:53.618Z,52.60
2017-09-24T09:37:21.121Z,51.10
2017-09-24T09:39:48.639Z,51.00
2017-09-24T09:42:16.174Z,50.50
2017-09-24T09:44:52.518Z,50.40
2017-09-24T09:47:25.972Z,50.90
2017-09-24T09:49:53.501Z,50.20
2017-09-24T09:52:21.018Z,50.60
2017-09-24T09:54:49.306Z,51.00
2017-09-24T09:57:16.814Z,51.00
2017-09-24T09:59:44.331Z,51.10
2017-09-24T10:02:11.853Z,51.30
2017-09-24T10:04:39.358Z,50.40
2017-09-24T10:07:18.783Z,50.10
2017-09-24T10:09:58.161Z,50.50
2017-09-24T10:12:25.682Z,50.70
2017-09-24T10:14:53.185Z,49.80
2017-09-24T10:17:20.691Z,49.70
2017-09-24T10:19:48.209Z,49.30
2017-09-24T10:22:15.710Z,49.40
2017-09-24T10:24:43.231Z,50.20
2017-09-24T10:27:10.733Z,49.90
2017-09-24T10:29:38.246Z,49.70
2017-09-24T10:32:05.778Z,49.80
2017-09-24T10:34:33.272Z,49.30
2017-09-24T10:37:00.806Z,47.60
2017-09-24T10:39:28.344Z,46.90
2017-09-24T10:41:55.866Z,47.30
2017-09-24T10:44:24.156Z,46.70
2017-09-24T10:46:52.420Z,47.40
2017-09-24T10:49:20.694Z,47.30
2017-09-24T10:51:48.986Z,47.20
2017-09-24T10:54:17.261Z,47.60
2017-09-24T10:56:45.528Z,48.40
2017-09-24T10:59:13.816Z,48.20
2017-09-24T11:01:42.090Z,48.40
2017-09-24T11:04:10.389Z,48.00
2017-09-24T11:06:37.898Z,48.00
2017-09-24T11:09:05.407Z,47.40
2017-09-24T11:11:32.917Z,46.30
2017-09-24T11:14:00.426Z,45.10
2017-09-24T11:16:27.967Z,45.20
2017-09-24T11:18:55.502Z,45.70
2017-09-24T11:21:23.104Z,46.30
2017-09-24T11:23:50.628Z,45.50
2017-09-24T11:26:18.166Z,46.70
2017-09-24T11:28:45.775Z,47.10
2017-09-24T11:31:13.295Z,47.50
2017-09-24T11:33:40.838Z,47.30
2017-09-24T11:36:08.378Z,47.50
2017-09-24T11:38:35.926Z,47.00
2017-09-24T11:41:04.443Z,46.80
2017-09-24T11:43:31.946Z,46.80
2017-09-24T11:46:00.418Z,46.40
2017-09-24T11:48:28.703Z,46.40
2017-09-24T11:50:56.222Z,46.30
2017-09-24T11:53:23.749Z,46.30
2017-09-24T11:55:51.314Z,46.50
2017-09-24T11:58:18.814Z,46.00
2017-09-24T12:00:46.326Z,45.20
2017-09-24T12:03:15.841Z,45.60
2017-09-24T12:05:43.361Z,45.60
2017-09-24T12:08:17.157Z,44.90
2017-09-24T12:10:44.689Z,45.20
2017-09-24T12:13:12.256Z,44.80
2017-09-24T12:15:39.762Z,45.10
2017-09-24T12:18:07.306Z,45.30
2017-09-24T12:20:34.821Z,45.70
2017-09-24T12:23:02.384Z,46.40
2017-09-24T12:25:29.997Z,46.50
2017-09-24T12:27:57.546Z,46.70
2017-09-24T12:30:25.516Z,46.90
2017-09-24T12:32:53.442Z,46.90
2017-09-24T12:35:21.002Z,46.80
2017-09-24T12:37:48.514Z,46.60
2017-09-24T12:40:16.170Z,46.60
2017-09-24T12:42:43.709Z,46.40
2017-09-24T12:45:12.007Z,46.30
2017-09-24T12:47:39.583Z,46.30
2017-09-24T12:50:07.900Z,46.20
2017-09-24T12:52:35.422Z,45.40
2017-09-24T12:55:02.966Z,45.10
2017-09-24T12:57:30.525Z,45.00
2017-09-24T12:59:58.102Z,44.70
2017-09-24T13:02:25.676Z,44.60
2017-09-24T13:04:53.215Z,45.00
2017-09-24T13:07:20.761Z,45.10
2017-09-24T13:09:48.291Z,44.90
2017-09-24T13:12:17.478Z,45.30
2017-09-24T13:14:45.018Z,45.30
2017-09-24T13:17:12.570Z,44.80
2017-09-24T13:19:40.088Z,45.20
2017-09-24T13:22:07.603Z,45.20
2017-09-24T13:24:35.142Z,45.50
2017-09-24T13:27:02.662Z,44.80
2017-09-24T13:29:30.195Z,44.80
2017-09-24T13:31:57.695Z,44.80
2017-09-24T13:34:25.262Z,43.00
2017-09-24T13:36:52.798Z,43.40
2017-09-24T13:39:20.303Z,43.50
2017-09-24T13:41:48.684Z,44.40
2017-09-24T13:44:16.206Z,44.50
2017-09-24T13:46:43.729Z,44.60
2017-09-24T13:49:11.259Z,44.80
2017-09-24T13:51:38.768Z,45.00
2017-09-24T13:54:06.332Z,44.40
2017-09-24T13:56:33.839Z,44.40
2017-09-24T13:59:01.367Z,44.70
2017-09-24T14:01:29.671Z,44.60
2017-09-24T14:03:57.169Z,44.50
2017-09-24T14:06:24.731Z,44.80
2017-09-24T14:08:53.035Z,43.90
2017-09-24T14:11:21.311Z,44.30
2017-09-24T14:13:49.614Z,44.70
2017-09-24T14:16:17.122Z,44.00
2017-09-24T14:18:45.458Z,44.40
2017-09-24T14:21:12.959Z,44.40
2017-09-24T14:23:40.484Z,44.70
2017-09-24T14:26:08.020Z,44.70
2017-09-24T14:28:35.545Z,44.40
2017-09-24T14:31:03.078Z,44.10
2017-09-24T14:33:30.890Z,44.20
2017-09-24T14:35:58.431Z,44.10
2017-09-24T14:38:25.954Z,42.00
2017-09-24T14:40:53.462Z,40.10
2017-09-24T14:43:20.998Z,41.50
2017-09-24T14:45:48.502Z,42.00
2017-09-24T14:48:15.998Z,41.90
2017-09-24T14:50:43.520Z,44.00
2017-09-24T14:53:11.786Z,41.70
2017-09-24T14:55:39.311Z,41.70
2017-09-24T14:58:06.814Z,42.00
2017-09-24T15:00:34.305Z,42.90
2017-09-24T15:03:01.814Z,42.10
2017-09-24T15:05:29.355Z,42.40
2017-09-24T15:07:56.885Z,43.10
2017-09-24T15:10:24.387Z,44.70
2017-09-24T15:12:51.895Z,44.00
2017-09-24T15:15:19.466Z,42.50
2017-09-24T15:17:46.962Z,43.90
2017-09-24T15:20:14.485Z,43.80
2017-09-24T15:22:41.990Z,42.90
2017-09-24T15:25:09.532Z,44.10
2017-09-24T15:27:37.038Z,44.10
2017-09-24T15:30:04.532Z,44.50
2017-09-24T15:32:32.999Z,44.80
2017-09-24T15:35:01.201Z,44.90
2017-09-24T15:37:30.433Z,44.80
2017-09-24T15:39:59.430Z,45.10
2017-09-24T15:42:29.415Z,44.40
2017-09-24T15:44:56.946Z,44.20
2017-09-24T15:47:24.443Z,45.30
2017-09-24T15:49:51.997Z,45.50
2017-09-24T15:52:19.511Z,45.40
2017-09-24T15:54:47.069Z,45.80
2017-09-24T15:57:14.577Z,46.00
2017-09-24T15:59:42.094Z,46.10
2017-09-24T16:02:09.631Z,46.50
2017-09-24T16:04:37.910Z,46.60
2017-09-24T16:07:05.470Z,46.50
2017-09-24T16:09:33.746Z,46.70
2017-09-24T16:12:02.092Z,46.80
2017-09-24T16:14:29.654Z,46.90
2017-09-24T16:16:57.166Z,46.90
2017-09-24T16:19:24.703Z,47.10
2017-09-24T16:21:52.983Z,47.40
2017-09-24T16:24:20.546Z,47.30
2017-09-24T16:26:48.758Z,47.60
2017-09-24T16:29:17.068Z,48.00
2017-09-24T16:31:44.595Z,47.90
2017-09-24T16:34:12.110Z,48.10
2017-09-24T16:36:40.385Z,48.00
2017-09-24T16:39:08.664Z,47.80
2017-09-24T16:41:36.972Z,47.60
2017-09-24T16:44:04.466Z,47.50
2017-09-24T16:46:31.974Z,47.70
2017-09-24T16:48:59.514Z,47.70
2017-09-24T16:51:27.798Z,47.60
2017-09-24T16:53:56.142Z,47.50
2017-09-24T16:56:23.633Z,47.50
2017-09-24T16:58:51.939Z,48.40
2017-09-24T17:01:19.478Z,48.30
2017-09-24T17:03:46.983Z,48.80
2017-09-24T17:06:15.275Z,49.60
2017-09-24T17:08:43.574Z,50.20
2017-09-24T17:11:11.142Z,50.20
2017-09-24T17:13:38.642Z,50.70
2017-09-24T17:16:06.906Z,51.40
2017-09-24T17:18:35.205Z,51.70
2017-09-24T17:21:02.732Z,51.60
2017-09-24T17:23:30.258Z,51.40
2017-09-24T17:25:57.766Z,51.00
2017-09-24T17:28:26.129Z,50.90
2017-09-24T17:30:53.637Z,50.80
2017-09-24T17:33:21.249Z,51.50
2017-09-24T17:35:48.778Z,51.10
2017-09-24T17:38:16.283Z,51.10
2017-09-24T17:40:44.576Z,51.70
2017-09-24T17:43:12.085Z,51.60
2017-09-24T17:45:39.643Z,52.10
2017-09-24T17:48:07.163Z,52.30
2017-09-24T17:50:34.714Z,52.60
2017-09-24T17:53:02.242Z,52.80
2017-09-24T17:55:29.747Z,53.20
2017-09-24T17:57:57.292Z,53.20
2017-09-24T18:00:24.864Z,53.40
2017-09-24T18:02:52.417Z,53.70
2017-09-24T18:05:19.934Z,53.70
2017-09-24T18:07:47.515Z,53.80
2017-09-24T18:10:15.811Z,53.90
2017-09-24T18:12:43.342Z,53.90
2017-09-24T18:15:10.874Z,54.20
2017-09-24T18:17:38.374Z,55.00
2017-09-24T18:20:06.701Z,54.60
2017-09-24T18:22:34.301Z,54.60
2017-09-24T18:25:02.582Z,54.60
2017-09-24T18:27:30.890Z,54.70
2017-09-24T18:29:58.412Z,54.60
2017-09-24T18:32:25.951Z,54.80
2017-09-24T18:34:53.515Z,55.20
2017-09-24T18:37:21.083Z,55.20
2017-09-24T18:39:49.400Z,55.60
2017-09-24T18:42:16.920Z,55.60
2017-09-24T18:44:44.464Z,55.50
2017-09-24T18:47:11.972Z,55.80
2017-09-24T18:49:40.274Z,56.00
2017-09-24T18:52:07.810Z,56.00
2017-09-24T18:54:35.394Z,56.00
2017-09-24T18:57:02.907Z,56.10
2017-09-24T18:59:31.366Z,56.30
2017-09-24T19:01:58.908Z,56.20
2017-09-24T19:04:27.199Z,56.40
2017-09-24T19:06:54.727Z,56.40
2017-09-24T19:09:22.238Z,56.30
2017-09-24T19:11:49.869Z,56.30
2017-09-24T19:14:17.400Z,56.60
2017-09-24T19:16:45.742Z,56.60
2017-09-24T19:19:13.414Z,56.70
2017-09-24T19:21:41.722Z,56.80
2017-09-24T19:24:09.242Z,56.80
2017-09-24T19:26:36.759Z,56.90
2017-09-24T19:29:04.323Z,56.80
2017-09-24T19:31:31.841Z,56.80
2017-09-24T19:34:00.136Z,57.00
2017-09-24T19:36:27.651Z,57.00
2017-09-24T19:38:55.192Z,56.90
2017-09-24T19:41:22.759Z,57.00
2017-09-24T19:43:50.305Z,57.00
2017-09-24T19:46:17.820Z,57.20
2017-09-24T19:48:45.350Z,57.20
2017-09-24T19:51:12.856Z,57.40
2017-09-24T19:53:42.019Z,57.50
2017-09-24T19:56:10.312Z,57.60
2017-09-24T19:58:37.838Z,57.60
2017-09-24T20:01:05.371Z,57.80
2017-09-24T20:03:33.070Z,57.90
2017-09-24T20:06:00.599Z,58.00
2017-09-24T20:08:29.105Z,57.90
2017-09-24T20:10:56.698Z,57.70
2017-09-24T20:13:24.222Z,58.00
2017-09-24T20:15:51.785Z,58.10
2017-09-24T20:18:19.288Z,58.30
2017-09-24T20:20:46.854Z,58.20
2017-09-24T20:23:14.360Z,58.20
2017-09-24T20:25:41.883Z,58.20
2017-09-24T20:28:09.386Z,58.30
2017-09-24T20:30:36.978Z,58.30
2017-09-24T20:33:04.489Z,58.30
2017-09-24T20:35:32.048Z,58.40
2017-09-24T20:37:59.565Z,58.50
2017-09-24T20:40:27.109Z,58.60
2017-09-24T20:42:54.612Z,58.70
2017-09-24T20:45:22.142Z,58.70
2017-09-24T20:47:49.699Z,59.40
2017-09-24T20:50:17.275Z,58.90
2017-09-24T20:52:45.245Z,58.70
2017-09-24T20:55:12.807Z,58.70
2017-09-24T20:57:40.310Z,58.70
2017-09-24T21:00:07.843Z,58.70
2017-09-24T21:02:35.353Z,58.70
2017-09-24T21:05:02.873Z,58.70
2017-09-24T21:07:30.402Z,58.70
2017-09-24T21:09:57.914Z,58.70
2017-09-24T21:12:26.209Z,58.90
2017-09-24T21:14:53.734Z,58.90
2017-09-24T21:17:21.304Z,59.00
2017-09-24T21:19:48.810Z,59.00
2017-09-24T21:22:16.339Z,59.70
2017-09-24T21:24:44.601Z,59.20
2017-09-24T21:27:12.902Z,59.20
2017-09-24T21:29:40.427Z,59.10
2017-09-24T21:32:07.957Z,59.30
2017-09-24T21:34:35.472Z,59.40
2017-09-24T21:37:02.997Z,59.50
2017-09-24T21:39:30.496Z,59.50
2017-09-24T21:41:58.013Z,59.40
2017-09-24T21:44:25.533Z,59.50
2017-09-24T21:46:53.049Z,59.60
2017-09-24T21:49:20.553Z,59.50
2017-09-24T21:51:48.087Z,59.50
2017-09-24T21:54:16.380Z,59.60
2017-09-24T21:56:44.141Z,59.60
2017-09-24T21:59:11.659Z,59.60
2017-09-24T22:01:39.230Z,59.70
2017-09-24T22:04:06.761Z,59.60
2017-09-24T22:06:34.262Z,59.60
2017-09-24T22:09:02.734Z,60.00
2017-09-24T22:11:31.063Z,59.90
2017-09-24T22:13:58.633Z,59.80
2017-09-24T22:16:26.177Z,59.70
2017-09-24T22:18:53.707Z,59.90
2017-09-24T22:21:21.978Z,59.80
2017-09-24T22:23:50.270Z,59.70
2017-09-24T22:26:17.782Z,59.70
2017-09-24T22:28:45.320Z,59.80
2017-09-24T22:31:12.821Z,59.90
2017-09-24T22:33:40.342Z,60.00
2017-09-24T22:36:07.849Z,60.50
2017-09-24T22:38:35.382Z,59.90
2017-09-24T22:41:02.882Z,59.70
2017-09-24T22:43:30.409Z,59.80
2017-09-24T22:45:58.702Z,59.80
2017-09-24T22:48:26.993Z,59.60
2017-09-24T22:50:54.502Z,59.60
2017-09-24T22:53:22.077Z,59.60
2017-09-24T22:55:49.583Z,59.30
2017-09-24T22:58:17.121Z,59.30
2017-09-24T23:00:45.393Z,59.20
2017-09-24T23:03:13.659Z,59.30
2017-09-24T23:05:41.947Z,59.20
2017-09-24T23:08:10.225Z,59.20
2017-09-24T23:10:38.506Z,59.20
2017-09-24T23:13:06.792Z,59.20
2017-09-24T23:15:34.306Z,59.20
2017-09-24T23:18:01.827Z,59.20
2017-09-24T23:20:30.113Z,58.80
2017-09-24T23:22:57.632Z,58.80
2017-09-24T23:25:25.912Z,59.30
2017-09-24T23:27:54.185Z,59.30
2017-09-24T23:30:22.466Z,59.50
2017-09-24T23:32:49.984Z,59.40
2017-09-24T23:35:17.522Z,59.40
2017-09-24T23:37:45.043Z,59.20
2017-09-24T23:40:13.337Z,59.20
2017-09-24T23:42:40.876Z,59.10
2017-09-24T23:45:09.157Z,59.10
2017-09-24T23:47:37.434Z,59.20
2017-09-24T23:50:05.727Z,59.30
2017-09-24T23:52:33.240Z,59.20
2017-09-24T23:55:00.761Z,59.30
2017-09-24T23:57:28.266Z,59.40
2017-09-24T23:59:55.815Z,59.30
